Time;durP1;ratioP1;P1;durP2;ratioP2;P2;SDS_P1;SDS_P2;PMS_P1;PMS_P2;Temp;Humidity;BMP_temperature;BMP_pressure;BME280_temperature;BME280_humidity;BME280_pressure;Samples;Min_cycle;Max_cycle;Signal;HPM_P1;HPM_P2
2023/07/17 00:01:35;;;;;;;4.60;2.33;;;19.20;99.90;;;;;;5038659;28;20206;-70
2023/07/17 00:04:01;;;;;;;5.55;2.50;;;19.20;99.90;;;;;;5049248;28;20406;-70
2023/07/17 00:06:27;;;;;;;3.53;2.30;;;19.20;99.90;;;;;;5040326;28;20056;-72
2023/07/17 00:08:52;;;;;;;6.70;2.50;;;19.10;99.90;;;;;;5058142;28;20445;-71
2023/07/17 00:11:18;;;;;;;6.13;2.67;;;19.10;99.90;;;;;;5057045;28;20047;-70
2023/07/17 00:13:44;;;;;;;4.43;2.20;;;19.10;99.90;;;;;;5041629;28;20487;-71
2023/07/17 00:16:09;;;;;;;5.30;2.47;;;19.10;99.90;;;;;;5046120;28;20052;-70
2023/07/17 00:18:35;;;;;;;4.38;2.33;;;19.10;99.90;;;;;;5050661;28;20135;-71
2023/07/17 00:21:01;;;;;;;4.40;2.28;;;19.00;99.90;;;;;;5039422;28;20496;-71
2023/07/17 00:23:27;;;;;;;3.78;2.28;;;19.00;99.90;;;;;;5055286;28;20060;-71
2023/07/17 00:25:53;;;;;;;5.43;2.97;;;19.00;99.90;;;;;;5044888;28;21377;-71
2023/07/17 00:28:18;;;;;;;4.20;2.70;;;18.90;99.90;;;;;;5044572;28;20037;-70
2023/07/17 00:30:45;;;;;;;5.82;2.80;;;18.90;99.90;;;;;;5047410;28;20103;-71
2023/07/17 00:33:11;;;;;;;5.00;3.30;;;18.90;99.90;;;;;;5043826;28;20054;-70
2023/07/17 00:35:37;;;;;;;5.68;2.72;;;18.90;99.90;;;;;;5042134;28;20052;-70
2023/07/17 00:38:03;;;;;;;5.05;2.90;;;18.90;99.90;;;;;;5048053;28;20059;-71
2023/07/17 00:40:30;;;;;;;5.38;3.17;;;18.90;99.90;;;;;;5064694;28;20129;-71
2023/07/17 00:43:00;;;;;;;7.30;3.17;;;18.90;99.90;;;;;;5061530;28;20044;-71
2023/07/17 00:45:30;;;;;;;5.97;3.10;;;18.90;99.90;;;;;;5058798;28;20052;-71
2023/07/17 00:47:56;;;;;;;4.40;2.65;;;18.90;99.90;;;;;;5049411;28;20071;-70
2023/07/17 00:50:22;;;;;;;7.35;3.40;;;18.90;99.90;;;;;;5066325;28;20406;-70
2023/07/17 00:52:48;;;;;;;5.50;3.15;;;18.90;99.90;;;;;;5045723;28;20973;-70
2023/07/17 00:55:14;;;;;;;5.25;2.83;;;18.90;99.90;;;;;;5063431;28;20036;-71
2023/07/17 00:57:41;;;;;;;7.20;3.30;;;18.90;99.90;;;;;;5046997;28;20048;-71
2023/07/17 01:00:08;;;;;;;5.70;3.30;;;18.90;99.90;;;;;;5050604;28;20056;-70
2023/07/17 01:02:37;;;;;;;6.15;3.20;;;18.80;99.90;;;;;;5063019;28;20127;-70
2023/07/17 01:05:03;;;;;;;6.18;3.40;;;18.90;99.90;;;;;;5040763;28;20044;-70
2023/07/17 01:07:29;;;;;;;5.90;3.20;;;18.80;99.90;;;;;;5040417;28;20126;-71
2023/07/17 01:09:54;;;;;;;7.95;3.53;;;18.80;99.90;;;;;;5065737;28;20063;-70
2023/07/17 01:12:20;;;;;;;9.55;4.00;;;18.80;99.90;;;;;;5042395;28;20056;-70
2023/07/17 01:14:47;;;;;;;8.52;3.60;;;18.80;99.90;;;;;;5049133;28;20042;-71
2023/07/17 01:17:13;;;;;;;6.13;3.40;;;18.80;99.90;;;;;;5071445;28;20945;-70
2023/07/17 01:19:38;;;;;;;6.18;3.60;;;18.70;99.90;;;;;;5068914;28;20043;-71
2023/07/17 01:22:36;;;;;;;7.57;3.67;;;18.70;99.90;;;;;;5049439;28;20052;-70
2023/07/17 01:25:03;;;;;;;5.55;3.33;;;18.70;99.90;;;;;;5037317;28;20087;-72
2023/07/17 01:27:28;;;;;;;7.47;3.80;;;18.70;99.90;;;;;;5067450;28;20176;-71
2023/07/17 01:29:54;;;;;;;4.95;3.30;;;18.60;99.90;;;;;;5069813;28;20055;-70
2023/07/17 01:32:20;;;;;;;7.00;3.97;;;18.70;99.90;;;;;;5048160;28;20040;-70
2023/07/17 01:34:46;;;;;;;7.03;3.90;;;18.60;99.90;;;;;;5041702;28;20055;-69
2023/07/17 01:37:12;;;;;;;6.80;3.65;;;18.60;99.90;;;;;;5046160;28;20083;-70
2023/07/17 01:39:38;;;;;;;10.40;4.07;;;18.50;99.90;;;;;;5062384;28;20112;-71
2023/07/17 01:42:04;;;;;;;6.90;3.45;;;18.50;99.90;;;;;;5064156;28;20443;-72
2023/07/17 01:44:30;;;;;;;4.93;3.47;;;18.50;99.90;;;;;;5057201;28;20075;-70
2023/07/17 01:46:57;;;;;;;6.93;3.70;;;18.50;99.90;;;;;;5048034;28;20045;-70
2023/07/17 01:49:23;;;;;;;8.15;3.50;;;18.40;99.90;;;;;;5049387;28;20055;-69
2023/07/17 01:51:48;;;;;;;8.73;4.00;;;18.50;99.90;;;;;;5053923;28;20036;-71
2023/07/17 01:54:15;;;;;;;6.05;3.80;;;18.40;99.90;;;;;;5064989;28;20085;-70
2023/07/17 01:56:41;;;;;;;7.13;3.40;;;18.40;99.90;;;;;;5041851;28;20408;-70
2023/07/17 01:59:06;;;;;;;6.47;3.53;;;18.30;99.90;;;;;;5043202;28;20329;-72
2023/07/17 02:01:33;;;;;;;6.03;3.78;;;18.30;99.90;;;;;;5070594;28;20384;-72
2023/07/17 02:04:02;;;;;;;6.10;3.95;;;18.30;99.90;;;;;;5043819;28;20076;-70
2023/07/17 02:06:28;;;;;;;6.20;4.10;;;18.30;99.90;;;;;;5046085;28;20495;-72
2023/07/17 02:08:54;;;;;;;8.57;4.13;;;18.20;99.90;;;;;;5050500;28;20053;-70
2023/07/17 02:11:20;;;;;;;7.57;3.90;;;18.20;99.90;;;;;;5039476;28;20043;-70
2023/07/17 02:13:46;;;;;;;7.22;3.70;;;18.20;99.90;;;;;;5041200;28;21553;-70
2023/07/17 02:16:11;;;;;;;6.00;3.72;;;18.10;99.90;;;;;;5060814;28;20079;-70
2023/07/17 02:18:37;;;;;;;6.47;3.78;;;18.10;99.90;;;;;;5056914;28;20045;-70
2023/07/17 02:21:04;;;;;;;5.93;3.85;;;18.10;99.90;;;;;;5048670;28;20165;-70
2023/07/17 02:23:29;;;;;;;7.25;4.03;;;18.00;99.90;;;;;;5063596;28;20128;-71
2023/07/17 02:25:55;;;;;;;7.55;3.80;;;18.00;99.90;;;;;;5065145;28;21834;-70
2023/07/17 02:28:21;;;;;;;6.65;3.92;;;17.90;99.90;;;;;;5055914;28;20167;-71
2023/07/17 02:30:46;;;;;;;8.10;3.92;;;17.90;99.90;;;;;;5044072;28;20056;-71
2023/07/17 02:33:13;;;;;;;8.55;4.10;;;17.90;99.90;;;;;;5042084;28;20044;-70
2023/07/17 02:35:38;;;;;;;7.40;3.95;;;17.90;99.90;;;;;;5060733;28;20538;-70
2023/07/17 02:38:04;;;;;;;6.70;3.83;;;17.80;99.90;;;;;;5058206;28;20037;-72
2023/07/17 02:40:30;;;;;;;6.55;4.28;;;17.80;99.90;;;;;;5045376;28;20044;-70
2023/07/17 02:42:55;;;;;;;7.18;4.22;;;17.80;99.90;;;;;;5067822;28;20411;-70
2023/07/17 02:45:21;;;;;;;8.02;4.15;;;17.70;99.90;;;;;;5041881;28;20126;-72
2023/07/17 02:47:47;;;;;;;6.22;4.07;;;17.70;99.90;;;;;;5055083;28;20132;-70
2023/07/17 02:50:12;;;;;;;6.70;4.10;;;17.70;99.90;;;;;;5039829;28;20048;-71
2023/07/17 02:52:38;;;;;;;6.72;4.20;;;17.70;99.90;;;;;;5039260;28;20052;-71
2023/07/17 02:55:04;;;;;;;9.85;4.60;;;17.60;99.90;;;;;;5055696;28;20047;-71
2023/07/17 02:57:36;;;;;;;9.15;4.38;;;17.60;99.90;;;;;;5062754;28;20543;-71
2023/07/17 03:00:11;;;;;;;7.20;4.55;;;17.60;99.90;;;;;;5062493;28;20060;-71
2023/07/17 03:02:39;;;;;;;9.68;4.45;;;17.50;99.90;;;;;;5068269;28;20078;-70
2023/07/17 03:05:08;;;;;;;6.93;4.30;;;17.40;99.90;;;;;;5046122;28;20044;-71
2023/07/17 03:07:35;;;;;;;6.68;4.15;;;17.50;99.90;;;;;;5041255;28;20403;-70
2023/07/17 03:10:02;;;;;;;8.77;4.30;;;17.40;99.90;;;;;;5038043;28;20087;-70
2023/07/17 03:12:28;;;;;;;8.07;4.07;;;17.40;99.90;;;;;;5042469;28;20090;-69
2023/07/17 03:14:53;;;;;;;8.80;4.28;;;17.30;99.90;;;;;;5044252;28;20305;-71
2023/07/17 03:17:19;;;;;;;9.20;4.05;;;17.30;99.90;;;;;;5038908;28;20044;-70
2023/07/17 03:19:44;;;;;;;9.05;3.90;;;17.30;99.90;;;;;;5058180;28;20047;-70
2023/07/17 03:22:10;;;;;;;8.52;4.07;;;17.30;99.90;;;;;;5040174;28;20056;-71
2023/07/17 03:24:36;;;;;;;6.78;3.78;;;17.30;99.90;;;;;;5056501;28;20052;-72
2023/07/17 03:27:02;;;;;;;8.20;4.10;;;17.20;99.90;;;;;;5061044;28;20049;-72
2023/07/17 03:29:28;;;;;;;8.27;4.00;;;17.20;99.90;;;;;;5053270;28;20073;-70
2023/07/17 03:31:53;;;;;;;7.38;4.03;;;17.20;99.90;;;;;;5057438;28;20100;-70
2023/07/17 03:34:19;;;;;;;8.85;3.80;;;17.20;99.90;;;;;;5038800;28;20046;-70
2023/07/17 03:36:45;;;;;;;7.28;3.80;;;17.20;99.90;;;;;;5041636;28;20052;-71
2023/07/17 03:39:11;;;;;;;7.50;3.90;;;17.20;99.90;;;;;;5046340;28;20048;-70
2023/07/17 03:41:37;;;;;;;7.05;3.42;;;17.20;99.90;;;;;;5044533;28;20049;-70
2023/07/17 03:44:03;;;;;;;9.20;4.00;;;17.20;99.90;;;;;;5039200;28;20036;-70
2023/07/17 03:46:30;;;;;;;6.50;3.87;;;17.10;99.90;;;;;;5065972;28;20044;-70
2023/07/17 03:48:55;;;;;;;5.80;3.47;;;17.10;99.90;;;;;;5038328;28;20090;-71
2023/07/17 03:51:22;;;;;;;8.25;3.60;;;17.10;99.90;;;;;;5049051;28;20060;-70
2023/07/17 03:53:50;;;;;;;9.45;3.97;;;17.10;99.90;;;;;;5039717;28;20044;-69
2023/07/17 03:56:16;;;;;;;7.93;4.07;;;17.10;99.90;;;;;;5041781;28;20048;-70
2023/07/17 03:58:42;;;;;;;7.57;3.80;;;17.10;99.90;;;;;;5054710;28;20601;-71
2023/07/17 04:01:07;;;;;;;8.82;4.00;;;17.00;99.90;;;;;;5039393;28;20059;-72
2023/07/17 04:03:33;;;;;;;6.63;4.38;;;17.00;99.90;;;;;;5059830;28;20044;-69
2023/07/17 04:05:58;;;;;;;7.47;3.97;;;17.00;99.90;;;;;;5044853;28;20036;-70
2023/07/17 04:08:24;;;;;;;8.18;3.95;;;17.00;99.90;;;;;;5065957;28;20403;-70
2023/07/17 04:10:50;;;;;;;9.57;4.30;;;17.00;99.90;;;;;;5038409;28;20040;-69
2023/07/17 04:13:15;;;;;;;9.50;3.85;;;17.00;99.90;;;;;;5058968;28;20480;-70
2023/07/17 04:15:41;;;;;;;8.63;4.22;;;17.00;99.90;;;;;;5053983;28;20483;-70
2023/07/17 04:18:07;;;;;;;5.60;3.42;;;17.00;99.90;;;;;;5043336;28;20112;-70
2023/07/17 04:20:36;;;;;;;9.45;4.25;;;17.00;99.90;;;;;;5035859;28;20043;-70
2023/07/17 04:23:02;;;;;;;7.82;3.85;;;17.00;99.90;;;;;;5037307;28;20056;-70
2023/07/17 04:25:27;;;;;;;9.48;4.10;;;17.00;99.90;;;;;;5036877;28;20051;-70
2023/07/17 04:27:53;;;;;;;8.80;4.40;;;17.00;99.90;;;;;;5030985;28;20048;-73
2023/07/17 04:30:19;;;;;;;7.80;4.30;;;17.00;99.90;;;;;;5057598;28;20105;-71
2023/07/17 04:32:44;;;;;;;6.32;4.03;;;17.00;99.90;;;;;;5039330;28;20918;-70
2023/07/17 04:35:10;;;;;;;6.00;3.80;;;17.00;99.90;;;;;;5060082;28;20125;-70
2023/07/17 04:37:36;;;;;;;7.03;3.78;;;17.10;99.90;;;;;;5055116;28;20103;-71
2023/07/17 04:40:01;;;;;;;7.30;3.85;;;17.10;99.90;;;;;;5060189;28;20794;-70
2023/07/17 04:42:28;;;;;;;8.27;4.28;;;17.10;99.90;;;;;;5054920;28;20047;-70
2023/07/17 04:44:53;;;;;;;8.03;4.07;;;17.20;99.90;;;;;;5041421;28;20059;-71
2023/07/17 04:47:19;;;;;;;6.55;4.07;;;17.20;99.90;;;;;;5060083;28;20053;-69
2023/07/17 04:49:45;;;;;;;9.27;4.57;;;17.20;99.90;;;;;;5038562;28;20375;-71
2023/07/17 04:52:10;;;;;;;8.30;4.22;;;17.20;99.90;;;;;;5046152;28;20089;-71
2023/07/17 04:54:36;;;;;;;6.55;4.15;;;17.30;99.90;;;;;;5048068;28;20051;-69
2023/07/17 04:57:03;;;;;;;6.97;4.63;;;17.30;99.90;;;;;;5049602;28;20055;-69
2023/07/17 04:59:29;;;;;;;8.43;4.65;;;17.30;99.90;;;;;;5042740;28;20423;-70
2023/07/17 05:01:54;;;;;;;8.43;4.65;;;17.40;99.90;;;;;;5042922;28;20058;-70
2023/07/17 05:04:20;;;;;;;9.80;4.40;;;17.40;99.90;;;;;;5058732;28;20105;-70
2023/07/17 05:06:46;;;;;;;8.98;4.40;;;17.40;99.90;;;;;;5045605;28;20132;-69
2023/07/17 05:09:12;;;;;;;9.70;5.00;;;17.40;99.90;;;;;;5064496;28;20124;-70
2023/07/17 05:11:39;;;;;;;7.47;4.40;;;17.50;99.90;;;;;;5037096;28;20162;-69
2023/07/17 05:14:04;;;;;;;10.40;4.70;;;17.50;99.90;;;;;;5032134;28;20055;-69
2023/07/17 05:16:30;;;;;;;8.57;4.40;;;17.60;99.90;;;;;;5036843;28;20052;-71
2023/07/17 05:18:56;;;;;;;9.35;4.50;;;17.60;99.90;;;;;;5061790;28;20043;-70
2023/07/17 05:21:21;;;;;;;9.10;4.63;;;17.60;99.90;;;;;;5055668;28;20051;-69
2023/07/17 05:23:47;;;;;;;8.18;4.53;;;17.70;99.90;;;;;;5047055;28;20051;-70
2023/07/17 05:26:12;;;;;;;7.82;4.10;;;17.70;99.90;;;;;;5059356;28;20044;-68
2023/07/17 05:28:40;;;;;;;8.60;4.30;;;17.70;99.90;;;;;;5057151;28;20478;-71
2023/07/17 05:31:06;;;;;;;8.18;4.30;;;17.80;99.90;;;;;;5055092;28;20117;-71
2023/07/17 05:33:31;;;;;;;8.35;4.40;;;17.80;99.90;;;;;;5046095;28;20744;-72
2023/07/17 05:35:57;;;;;;;8.63;4.35;;;17.90;99.90;;;;;;5061098;28;20047;-71
2023/07/17 05:38:23;;;;;;;7.80;4.20;;;17.90;99.90;;;;;;5039709;28;20051;-72
2023/07/17 05:40:58;;;;;;;7.80;4.07;;;18.00;99.90;;;;;;5041636;28;20060;-71
2023/07/17 05:43:24;;;;;;;8.63;4.28;;;18.00;99.90;;;;;;5047776;28;21896;-70
2023/07/17 05:45:49;;;;;;;11.15;4.25;;;18.10;99.90;;;;;;5060679;28;20051;-71
2023/07/17 05:48:15;;;;;;;8.90;3.95;;;18.10;99.90;;;;;;5059238;28;20035;-71
2023/07/17 05:50:42;;;;;;;10.13;4.80;;;18.20;99.90;;;;;;5065673;28;20082;-71
2023/07/17 05:53:08;;;;;;;9.45;4.65;;;18.20;99.90;;;;;;5047112;28;20048;-71
2023/07/17 05:55:34;;;;;;;10.40;5.50;;;18.20;99.90;;;;;;5042556;28;20458;-71
2023/07/17 05:57:59;;;;;;;7.90;4.57;;;18.20;99.90;;;;;;5045430;28;20126;-71
2023/07/17 06:00:25;;;;;;;11.13;5.07;;;18.20;99.90;;;;;;5040200;28;20049;-71
2023/07/17 06:02:51;;;;;;;8.48;4.43;;;18.30;99.90;;;;;;5040772;28;20040;-71
2023/07/17 06:05:17;;;;;;;9.73;5.60;;;18.30;99.90;;;;;;5035744;28;20049;-71
2023/07/17 06:07:43;;;;;;;10.38;4.95;;;18.30;99.90;;;;;;5036029;28;20096;-71
2023/07/17 06:10:09;;;;;;;11.18;5.50;;;18.40;99.90;;;;;;5047263;28;20048;-71
2023/07/17 06:12:34;;;;;;;11.02;5.07;;;18.40;99.90;;;;;;5045919;28;20045;-71
2023/07/17 06:15:01;;;;;;;10.73;5.03;;;18.50;99.90;;;;;;5045672;28;20381;-71
2023/07/17 06:17:27;;;;;;;10.50;5.28;;;18.50;99.90;;;;;;5053671;28;20499;-72
2023/07/17 06:19:53;;;;;;;12.27;5.40;;;18.50;99.90;;;;;;5043458;28;20566;-71
2023/07/17 06:22:18;;;;;;;12.25;4.88;;;18.60;99.90;;;;;;5039741;28;20045;-72
2023/07/17 06:24:44;;;;;;;11.75;5.40;;;18.60;99.90;;;;;;5036739;28;20091;-72
2023/07/17 06:27:10;;;;;;;11.02;5.25;;;18.70;99.90;;;;;;5039872;28;20052;-72
2023/07/17 06:29:35;;;;;;;11.18;5.25;;;18.70;99.90;;;;;;5052811;28;20515;-72
2023/07/17 06:32:01;;;;;;;10.45;5.70;;;18.70;99.90;;;;;;5050384;28;20285;-71
2023/07/17 06:34:27;;;;;;;12.95;5.68;;;18.70;99.90;;;;;;5040385;28;20048;-72
2023/07/17 06:36:52;;;;;;;10.52;6.00;;;18.70;99.90;;;;;;5042733;28;20923;-72
2023/07/17 06:39:19;;;;;;;11.23;5.63;;;18.70;99.90;;;;;;5044324;28;20060;-72
2023/07/17 06:41:44;;;;;;;10.75;5.95;;;18.80;99.90;;;;;;5043847;28;20117;-72
2023/07/17 06:44:10;;;;;;;14.00;6.35;;;18.80;99.90;;;;;;5040074;28;20040;-72
2023/07/17 06:46:35;;;;;;;12.52;6.30;;;18.80;99.90;;;;;;5040204;28;20044;-72
2023/07/17 06:49:01;;;;;;;13.70;5.85;;;18.90;99.90;;;;;;5040532;28;20729;-72
2023/07/17 06:51:27;;;;;;;17.38;6.35;;;18.90;99.90;;;;;;5040867;28;20036;-73
2023/07/17 06:53:53;;;;;;;13.95;6.07;;;19.00;99.90;;;;;;5041073;28;20044;-74
2023/07/17 06:56:19;;;;;;;12.65;6.00;;;19.00;99.90;;;;;;5037643;28;20052;-72
2023/07/17 06:58:44;;;;;;;11.20;6.35;;;19.10;99.90;;;;;;5045603;28;20575;-72
2023/07/17 07:01:11;;;;;;;13.48;6.20;;;19.20;99.90;;;;;;5043692;28;20748;-72
2023/07/17 07:03:37;;;;;;;12.02;6.20;;;19.30;99.90;;;;;;5074256;28;20051;-73
2023/07/17 07:06:04;;;;;;;14.70;6.63;;;19.30;99.90;;;;;;5056774;28;20050;-71
2023/07/17 07:08:31;;;;;;;15.43;7.38;;;19.40;99.90;;;;;;5044477;28;20099;-73
2023/07/17 07:10:58;;;;;;;;;;;19.40;99.90;;;;;;5058134;28;20086;-73
2023/07/17 07:13:24;;;;;;;13.13;6.30;;;19.40;99.90;;;;;;5050965;28;19924;-73
2023/07/17 07:15:51;;;;;;;12.60;6.47;;;19.50;99.90;;;;;;5067654;28;20047;-75
2023/07/17 07:18:17;;;;;;;14.77;6.43;;;19.50;99.90;;;;;;5045943;28;20105;-72
2023/07/17 07:20:44;;;;;;;14.18;7.15;;;19.60;99.90;;;;;;5064799;28;20301;-73
2023/07/17 07:23:10;;;;;;;14.30;6.35;;;19.60;99.90;;;;;;5042697;28;20117;-71
2023/07/17 07:25:35;;;;;;;20.50;7.25;;;19.60;99.90;;;;;;5050859;28;20574;-69
2023/07/17 07:28:01;;;;;;;13.40;6.50;;;19.50;99.90;;;;;;5049497;28;20897;-71
2023/07/17 07:30:27;;;;;;;14.05;6.63;;;19.40;99.90;;;;;;5052901;28;20048;-72
2023/07/17 07:32:53;;;;;;;11.63;6.40;;;19.40;99.90;;;;;;5043579;28;20040;-74
2023/07/17 07:35:19;;;;;;;11.63;6.45;;;19.40;99.90;;;;;;5049861;28;20054;-73
2023/07/17 07:37:45;;;;;;;13.38;6.60;;;19.40;99.90;;;;;;5053118;28;20561;-73
2023/07/17 07:40:12;;;;;;;13.80;6.18;;;19.40;99.90;;;;;;5069891;28;20124;-73
2023/07/17 07:42:41;;;;;;;11.98;6.20;;;19.40;99.90;;;;;;5051927;28;20534;-74
2023/07/17 07:45:11;;;;;;;13.05;5.97;;;19.30;99.90;;;;;;5052684;28;20052;-73
2023/07/17 07:47:37;;;;;;;10.95;6.28;;;19.30;99.90;;;;;;5069715;28;20144;-74
2023/07/17 07:50:03;;;;;;;12.97;5.80;;;19.40;99.90;;;;;;5046919;28;20520;-71
2023/07/17 07:52:29;;;;;;;13.87;5.77;;;19.40;99.90;;;;;;5068277;28;20054;-72
2023/07/17 07:54:55;;;;;;;13.73;5.93;;;19.40;99.90;;;;;;5046102;28;20041;-72
2023/07/17 07:57:21;;;;;;;11.55;5.75;;;19.40;99.90;;;;;;5069835;28;20039;-71
2023/07/17 07:59:48;;;;;;;12.23;5.85;;;19.50;99.90;;;;;;5073921;28;20055;-72
2023/07/17 08:02:14;;;;;;;;;;;19.60;99.90;;;;;;5040028;28;20103;-72
2023/07/17 08:04:41;;;;;;;12.27;6.13;;;19.70;99.90;;;;;;5056535;28;19931;-72
2023/07/17 08:07:07;;;;;;;11.80;5.97;;;19.70;99.90;;;;;;5042384;28;20044;-72
2023/07/17 08:09:33;;;;;;;11.63;5.78;;;19.60;99.90;;;;;;5061269;28;20073;-71
2023/07/17 08:11:58;;;;;;;12.77;5.72;;;19.50;99.90;;;;;;5054111;28;20048;-73
2023/07/17 08:14:24;;;;;;;11.88;5.47;;;19.40;99.90;;;;;;5035589;28;20055;-73
2023/07/17 08:16:50;;;;;;;13.25;5.75;;;19.30;99.90;;;;;;5055287;28;20080;-73
2023/07/17 08:19:17;;;;;;;10.40;5.65;;;19.40;99.90;;;;;;5053665;28;21483;-74
2023/07/17 08:21:43;;;;;;;11.80;5.72;;;19.50;99.90;;;;;;5054728;28;20765;-73
2023/07/17 08:24:09;;;;;;;14.18;6.43;;;19.60;99.90;;;;;;5047032;28;20090;-71
2023/07/17 08:26:36;;;;;;;13.53;7.03;;;19.80;99.90;;;;;;5056310;28;20068;-73
2023/07/17 08:29:02;;;;;;;11.90;5.85;;;19.90;99.90;;;;;;5044199;28;20647;-72
2023/07/17 08:31:28;;;;;;;11.95;5.78;;;20.10;99.90;;;;;;5055259;28;20048;-73
2023/07/17 08:33:54;;;;;;;11.45;5.78;;;20.30;99.90;;;;;;5053890;28;20933;-72
2023/07/17 08:36:22;;;;;;;13.68;5.32;;;20.50;99.90;;;;;;5055277;28;20040;-73
2023/07/17 08:38:47;;;;;;;10.02;5.18;;;20.60;99.90;;;;;;5065947;28;20083;-73
2023/07/17 08:41:16;;;;;;;10.32;5.20;;;20.70;99.90;;;;;;5042222;28;20181;-72
2023/07/17 08:43:43;;;;;;;9.93;5.50;;;20.80;99.90;;;;;;5057065;28;20688;-73
2023/07/17 08:46:10;;;;;;;11.80;5.18;;;20.70;99.90;;;;;;5057780;28;20032;-72
2023/07/17 08:48:36;;;;;;;11.27;5.35;;;20.50;99.90;;;;;;5064432;28;20105;-72
2023/07/17 08:51:02;;;;;;;11.80;5.57;;;20.40;99.90;;;;;;5059244;28;20475;-72
2023/07/17 08:53:28;;;;;;;12.00;5.22;;;20.40;99.90;;;;;;5045994;28;20079;-72
2023/07/17 08:55:55;;;;;;;12.02;5.95;;;20.30;99.90;;;;;;5062791;28;20449;-71
2023/07/17 08:58:25;;;;;;;10.02;5.68;;;20.40;99.90;;;;;;5050213;28;20047;-73
2023/07/17 09:00:50;;;;;;;12.02;5.88;;;20.50;99.90;;;;;;5066766;28;20051;-73
2023/07/17 09:03:18;;;;;;;10.80;5.45;;;20.60;99.90;;;;;;5062020;28;20052;-73
2023/07/17 09:05:44;;;;;;;11.80;5.43;;;20.60;99.90;;;;;;5043520;28;20063;-73
2023/07/17 09:08:11;;;;;;;11.32;5.65;;;20.70;99.90;;;;;;5060314;28;20423;-73
2023/07/17 09:10:36;;;;;;;;;;;20.70;99.90;;;;;;5051952;28;20051;-73
2023/07/17 09:13:03;;;;;;;10.70;5.47;;;20.60;99.90;;;;;;5046153;28;19978;-74
2023/07/17 09:15:30;;;;;;;14.35;5.60;;;20.50;99.90;;;;;;5061976;28;20044;-73
2023/07/17 09:17:56;;;;;;;11.90;4.95;;;20.60;99.90;;;;;;5044744;28;20057;-74
2023/07/17 09:20:21;;;;;;;9.23;4.82;;;20.60;99.90;;;;;;5065265;28;20067;-73
2023/07/17 09:22:48;;;;;;;9.15;4.95;;;20.80;99.90;;;;;;5060397;28;21257;-71
2023/07/17 09:25:15;;;;;;;9.25;4.35;;;20.90;99.90;;;;;;5060727;28;20045;-71
2023/07/17 09:27:48;;;;;;;9.70;4.57;;;21.10;99.90;;;;;;5040412;28;20052;-71
2023/07/17 09:30:16;;;;;;;9.65;4.60;;;21.10;99.90;;;;;;5042841;28;20120;-71
2023/07/17 09:32:43;;;;;;;8.95;4.90;;;21.20;99.90;;;;;;5043356;28;20056;-72
2023/07/17 09:35:11;;;;;;;;;;;21.30;99.90;;;;;;5052865;28;20047;-73
2023/07/17 09:37:38;;;;;;;9.75;4.80;;;21.30;99.90;;;;;;5061347;28;19949;-71
2023/07/17 09:40:09;;;;;;;9.35;4.95;;;21.30;99.90;;;;;;5040505;28;20075;-73
2023/07/17 09:42:36;;;;;;;9.52;4.53;;;21.50;99.90;;;;;;5066412;28;20044;-74
2023/07/17 09:45:03;;;;;;;8.45;4.75;;;21.60;99.90;;;;;;5063379;28;20044;-70
2023/07/17 09:47:29;;;;;;;;;;;21.50;99.90;;;;;;5043934;28;20041;-73
2023/07/17 09:49:58;;;;;;;11.77;5.50;;;21.30;99.90;;;;;;5060786;28;19963;-71
2023/07/17 09:52:25;;;;;;;14.98;5.70;;;21.00;99.90;;;;;;5052945;28;20044;-71
2023/07/17 09:54:51;;;;;;;;;;;20.60;99.90;;;;;;5046501;28;20130;-74
2023/07/17 09:57:30;;;;;;;11.00;5.70;;;20.20;99.90;;;;;;5045742;28;20491;-74
2023/07/17 10:00:03;;;;;;;11.23;5.95;;;19.90;99.90;;;;;;5044704;28;20055;-73
2023/07/17 10:02:49;;;;;;;9.90;5.55;;;19.80;99.90;;;;;;5051140;28;21127;-73
2023/07/17 10:05:15;;;;;;;9.50;4.82;;;19.70;99.90;;;;;;5047521;28;20063;-73
2023/07/17 10:07:45;;;;;;;8.27;4.20;;;19.30;99.90;;;;;;5063219;28;22016;-73
2023/07/17 10:10:11;;;;;;;8.45;4.30;;;19.10;99.90;;;;;;5050447;28;20048;-75
2023/07/17 10:12:38;;;;;;;8.05;4.43;;;18.90;99.90;;;;;;5048904;28;20177;-74
2023/07/17 10:15:05;;;;;;;7.43;4.38;;;18.90;99.90;;;;;;5044894;28;20384;-73
2023/07/17 10:17:35;;;;;;;8.18;4.45;;;18.90;99.90;;;;;;5038822;28;20075;-75
2023/07/17 10:20:06;;;;;;;8.00;4.68;;;19.00;99.90;;;;;;5058375;28;20072;-78
2023/07/17 10:22:46;;;;;;;7.78;4.63;;;19.10;99.90;;;;;;5046901;28;20054;-74
2023/07/17 10:25:17;;;;;;;8.50;4.70;;;19.30;99.90;;;;;;5059047;28;20048;-73
2023/07/17 10:28:03;;;;;;;10.20;5.13;;;19.40;99.90;;;;;;5044727;28;20117;-75
2023/07/17 10:30:30;;;;;;;7.97;4.97;;;19.60;99.90;;;;;;5045540;28;20135;-75
2023/07/17 10:33:14;;;;;;;7.97;4.57;;;19.90;99.90;;;;;;5054474;28;20127;-74
2023/07/17 10:36:00;;;;;;;10.10;4.70;;;20.20;99.90;;;;;;5055182;28;20055;-75
2023/07/17 10:38:53;;;;;;;9.67;4.87;;;20.50;99.90;;;;;;5041697;28;20048;-75
2023/07/17 10:41:19;;;;;;;7.97;4.40;;;20.70;99.90;;;;;;5053993;28;21769;-75
2023/07/17 10:44:01;;;;;;;9.70;4.88;;;20.80;99.90;;;;;;5042071;28;20086;-75
2023/07/17 10:46:28;;;;;;;8.35;4.55;;;20.90;99.90;;;;;;5039503;28;20059;-73
2023/07/17 10:49:15;;;;;;;9.05;4.40;;;21.00;99.90;;;;;;5059848;28;20484;-74
2023/07/17 10:51:42;;;;;;;;;;;21.30;99.90;;;;;;5041509;28;20053;-73
2023/07/17 10:54:08;;;;;;;9.98;4.90;;;21.40;99.90;;;;;;5040964;28;19924;-74
2023/07/17 10:56:34;;;;;;;7.38;4.55;;;21.30;99.90;;;;;;5067010;28;20695;-73
2023/07/17 10:59:00;;;;;;;11.52;5.07;;;21.20;99.90;;;;;;5053510;28;20036;-73
2023/07/17 11:01:26;;;;;;;11.48;4.90;;;21.00;99.90;;;;;;5045588;28;20071;-72
2023/07/17 11:03:53;;;;;;;10.85;5.07;;;20.80;99.90;;;;;;5077241;28;20048;-72
2023/07/17 11:06:23;;;;;;;9.60;4.10;;;20.70;99.90;;;;;;5061731;28;20048;-71
2023/07/17 11:08:50;;;;;;;8.98;4.05;;;20.60;99.90;;;;;;5062961;28;20048;-72
2023/07/17 11:11:17;;;;;;;7.68;3.60;;;20.50;99.90;;;;;;5058897;28;20044;-74
2023/07/17 11:13:49;;;;;;;8.68;4.07;;;20.40;99.90;;;;;;5040973;28;20045;-74
2023/07/17 11:16:16;;;;;;;7.30;3.50;;;20.40;99.90;;;;;;5055658;28;20036;-74
2023/07/17 11:18:49;;;;;;;10.07;3.87;;;20.50;99.90;;;;;;5067122;28;20051;-73
2023/07/17 11:21:16;;;;;;;7.55;3.40;;;20.70;99.90;;;;;;5051365;28;20044;-72
2023/07/17 11:23:51;;;;;;;7.57;3.80;;;21.00;99.90;;;;;;5039979;28;20052;-72
2023/07/17 11:26:18;;;;;;;8.15;3.13;;;21.30;99.90;;;;;;5058529;28;20056;-69
2023/07/17 11:28:48;;;;;;;7.93;3.30;;;21.50;99.90;;;;;;5062746;28;20051;-73
2023/07/17 11:31:31;;;;;;;7.07;2.90;;;21.70;99.90;;;;;;5046222;28;20048;-72
2023/07/17 11:33:59;;;;;;;7.22;3.30;;;21.80;99.90;;;;;;5056455;28;20045;-72
2023/07/17 11:36:41;;;;;;;7.03;3.20;;;22.00;99.90;;;;;;5056546;28;20445;-73
2023/07/17 11:39:28;;;;;;;7.70;3.42;;;22.10;99.90;;;;;;5050664;28;20044;-74
2023/07/17 11:41:55;;;;;;;7.22;2.90;;;22.10;99.90;;;;;;5039257;28;20048;-74
2023/07/17 11:44:23;;;;;;;;;;;21.90;99.90;;;;;;5039343;28;20047;-73
2023/07/17 11:46:50;;;;;;;5.90;3.03;;;21.80;99.90;;;;;;5056065;28;20011;-74
2023/07/17 11:49:16;;;;;;;6.85;2.90;;;21.90;99.90;;;;;;5068620;28;20040;-72
2023/07/17 11:51:42;;;;;;;7.63;2.88;;;22.20;99.90;;;;;;5057254;28;20051;-74
2023/07/17 11:54:08;;;;;;;6.00;2.65;;;22.30;99.90;;;;;;5058237;28;20029;-75
2023/07/17 11:56:35;;;;;;;7.78;2.95;;;22.40;99.90;;;;;;5048700;28;20092;-74
2023/07/17 11:59:02;;;;;;;7.63;2.85;;;22.50;99.90;;;;;;5052555;28;20059;-74
2023/07/17 12:01:27;;;;;;;6.70;2.70;;;22.40;99.90;;;;;;5059806;28;20063;-75
2023/07/17 12:03:53;;;;;;;5.32;2.45;;;22.20;99.90;;;;;;5061345;28;20291;-74
2023/07/17 12:06:19;;;;;;;6.68;2.92;;;22.00;99.90;;;;;;5060566;28;20499;-73
2023/07/17 12:08:46;;;;;;;6.13;3.00;;;21.80;99.90;;;;;;5042594;28;20052;-72
2023/07/17 12:11:12;;;;;;;6.65;2.97;;;21.70;99.90;;;;;;5047814;28;20056;-74
2023/07/17 12:13:38;;;;;;;7.53;2.80;;;21.50;99.90;;;;;;5058166;28;20036;-73
2023/07/17 12:16:04;;;;;;;5.47;2.45;;;21.50;99.90;;;;;;5038214;28;20047;-73
2023/07/17 12:18:29;;;;;;;7.15;3.05;;;21.50;99.90;;;;;;5042463;28;20043;-71
2023/07/17 12:20:55;;;;;;;8.43;3.00;;;21.50;99.90;;;;;;5063940;28;20449;-71
2023/07/17 12:23:22;;;;;;;6.75;2.85;;;21.50;99.90;;;;;;5045361;28;20110;-70
2023/07/17 12:25:49;;;;;;;6.38;2.75;;;21.50;99.90;;;;;;5039259;28;20051;-71
2023/07/17 12:28:14;;;;;;;6.93;3.60;;;21.50;99.90;;;;;;5051955;28;20048;-70
2023/07/17 12:30:41;;;;;;;7.95;3.97;;;21.50;99.90;;;;;;5043014;28;20056;-71
2023/07/17 12:33:07;;;;;;;9.40;4.25;;;21.50;99.90;;;;;;5060963;28;20044;-71
2023/07/17 12:35:33;;;;;;;8.55;4.45;;;21.40;99.90;;;;;;5061248;28;20051;-71
2023/07/17 12:37:58;;;;;;;8.07;4.25;;;21.30;99.90;;;;;;5071314;28;20056;-71
2023/07/17 12:40:25;;;;;;;7.95;3.80;;;21.20;99.90;;;;;;5043097;28;20122;-69
2023/07/17 12:42:50;;;;;;;7.25;3.53;;;21.00;99.90;;;;;;5043835;28;20099;-71
2023/07/17 12:45:16;;;;;;;7.07;3.75;;;20.90;99.90;;;;;;5067771;28;20558;-71